Berabevu, Argentina
Current Conditions -  °F | °C
As of 1:00 AM on Wednesday 28 Jan 2015 (Local Time) from SAAR Reporting Station
Overcast Overcast  
Wind Chill: 79°   Ceiling: 10000
Heat Index: 82°   Visibility: 6mi
Dew Point: 73°   Wind: 3mph
Humidity: 83%   Direction: 180°S
Pressure: 29.74"   Gusts: NA
Location:  33.48°S, 61.99°W
Report Text: SAAR 280400Z 18003KT 9999 FEW040CB BKN100OVC200 26/23 Q1007
Loading
Personal Weather Stations






























Interactive Weather Map New forecast layout! Learn more

10-Day Weather Forecast

Advertisements
Track Severe Weather on mobile